This is the latest recevied weather packets stored in our database for station/object E27EKO-13. If no packets are shown the sender has not sent any weather packets the latest 10 day(s).
| Time | Temp. | Humidity | Pressure | Rain* | Wind** | Luminosity | Snow |
|---|---|---|---|---|---|---|---|
| 1777630769 | 36.11° C | 63% | 1005 hPa | - | - | 0 W/m² | - |
| 1777630447 | 36.11° C | 62% | 1005 hPa | - | - | 0 W/m² | - |
| 1777630327 | 36.67° C | 61% | 1005 hPa | - | - | 0 W/m² | - |
| 1777630005 | 37.22° C | 58% | 1005 hPa | - | - | 0 W/m² | - |
| 1777629682 | 37.78° C | 57% | 1005 hPa | - | - | 0 W/m² | - |
| 1777629360 | 38.89° C | 54% | 1005 hPa | - | - | 0 W/m² | - |
| 1777629038 | 40° C | 52% | 1005 hPa | - | - | 0 W/m² | - |
| 1777628716 | 40.56° C | 51% | 1005 hPa | - | - | 0 W/m² | - |
| 1777628394 | 40.56° C | 50% | 1005 hPa | - | - | 0 W/m² | - |
| 1777628072 | 40.56° C | 49% | 1005 hPa | - | - | 0 W/m² | - |
| 1777627750 | 41.11° C | 48% | 1005 hPa | - | - | 0 W/m² | - |
| 1777627428 | 41.67° C | 47% | 1005 hPa | - | - | 0 W/m² | - |
| 1777627106 | 41.67° C | 48% | 1005 hPa | - | - | 0 W/m² | - |
| 1777626784 | 41.67° C | 47% | 1005 hPa | - | - | 0 W/m² | - |
| 1777626462 | 42.22° C | 45% | 1005 hPa | - | - | 0 W/m² | - |
| 1777626140 | 42.22° C | 45% | 1005 hPa | - | - | 0 W/m² | - |
| 1777625818 | 42.22° C | 47% | 1006 hPa | - | - | 0 W/m² | - |
| 1777625496 | 42.22° C | 47% | 1006 hPa | - | - | 0 W/m² | - |
| 1777625174 | 42.22° C | 47% | 1006 hPa | - | - | 0 W/m² | - |
| 1777624852 | 41.11° C | 48% | 1006 hPa | - | - | 0 W/m² | - |
| 1777624532 | 40.56° C | 49% | 1006 hPa | - | - | 0 W/m² | - |
| 1777624208 | 40° C | 51% | 1006 hPa | - | - | 0 W/m² | - |
| 1777623886 | 40° C | 51% | 1006 hPa | - | - | 0 W/m² | - |
| 1777623604 | 40° C | 52% | 1006 hPa | - | - | 0 W/m² | - |
| 1777623282 | 39.44° C | 52% | 1006 hPa | - | - | 0 W/m² | - |
* Rain since midnight (hover to see other rain measurements)
** Current wind speed in m/s (hover to see current wind gust speed)